Aérodrome :
LOGIN :

S'inscrire | Disclaimer

   EN    FR    IT 

 










Légende :    VFR   VFR Marginal   IFR   IFR Intensif   IFR Très Intensif
Visi : 
Plafond : 
>= 8 km
>= 3000ft
5 à 8 km
1000 à 3000 ft
1500m à 5 km
500 à 1000 ft
800 à 1500m
200 à 500 ft
< 800m
< 200 ft
Symboles :   Orages  Brouillard  Fortes neiges  Fortes précipitations  Vent > 20 kt
SIGMETs :   Divers  Orages  Givrage  Turbulence  Onde Orograph.  Cendres Volcan.






- Altitude de l'aérodrome : 512 ft
- Code IATA : URO


LFOP - Rouen Vallée de Seine

DERNIER METAR :
  • 290800Z AUTO 03006KT 4600 BR NSC 02/02 Q1022 TEMPO 0400 FG VV///

METARs EXPIRÉS :
  • 290730Z AUTO 02004KT 4400 BR NSC 02/02 Q1021 TEMPO 0400 FG VV///
  • 290700Z AUTO 05007KT 6000 NSC 03/02 Q1021 TEMPO 0400 FG VV///
  • 290630Z AUTO 03007KT 9000 NSC 03/01 Q1021 TEMPO 0400 FG VV///
  • 290600Z AUTO 01005KT CAVOK 05/03 Q1021 BECMG 3000 BR OVC003
  • 290530Z AUTO 03006KT CAVOK 04/03 Q1021

TAF TAF LFOP
Valide du 29 à 06h jusqu'au 30 à 06h UTC


290500Z 2906/3006 05006KT CAVOK
BECMG 2906/2910 3000 BR OVC003
PROB40 2908/2911 0400 FG VV///
TEMPO 2912/2916 6000 SCT010
PROB40 3000/3006 0400 FZFG VV///
ATIS : +33 2 35 80 80 34
Météo : +33 2 32 86 52 80



MET'MAP, la Météo Aéronautique d'un coup d'oeil ! - Copyright ORBIFLY Décembre 2007 - Disclaimer

ORBIFLY MET'MAP TEAM :

Programmation & Développement : Alexandra Zaïnal
Sur une idée originale de : Baudouin d'Aumeries
Assistance à la programmation : Marc-Olivier Méhu
Soutien technique & logistique : Manuel Goepfert

Contact : metmap@orbifly.com




SOURCES & CREDITS :

   NOAA